sensor_id;sensor_type;location;lat;lon;timestamp;pressure;altitude;pressure_sealevel;temperature;humidity
34742;BME280;20968;42.696;23.360;2023-02-23T00:01:18;95102.81;;;11.71;50.67
34742;BME280;20968;42.696;23.360;2023-02-23T00:03:44;95099.97;;;11.61;50.34
34742;BME280;20968;42.696;23.360;2023-02-23T00:06:11;95103.69;;;11.58;50.70
34742;BME280;20968;42.696;23.360;2023-02-23T00:08:38;95108.28;;;11.46;50.75
34742;BME280;20968;42.696;23.360;2023-02-23T00:11:05;95110.72;;;11.39;50.74
34742;BME280;20968;42.696;23.360;2023-02-23T00:13:32;95114.44;;;11.36;50.91
34742;BME280;20968;42.696;23.360;2023-02-23T00:16:18;95118.16;;;11.33;51.07
34742;BME280;20968;42.696;23.360;2023-02-23T00:18:45;95108.38;;;11.32;51.29
34742;BME280;20968;42.696;23.360;2023-02-23T00:21:16;95114.94;;;11.34;51.51
34742;BME280;20968;42.696;23.360;2023-02-23T00:23:54;95117.13;;;11.30;51.54
34742;BME280;20968;42.696;23.360;2023-02-23T00:26:21;95110.59;;;11.28;51.45
34742;BME280;20968;42.696;23.360;2023-02-23T00:28:52;95119.13;;;11.30;51.70
34742;BME280;20968;42.696;23.360;2023-02-23T00:31:19;95118.28;;;11.24;51.63
34742;BME280;20968;42.696;23.360;2023-02-23T00:33:56;95112.25;;;11.20;51.53
34742;BME280;20968;42.696;23.360;2023-02-23T00:36:25;95123.00;;;11.18;51.61
34742;BME280;20968;42.696;23.360;2023-02-23T00:38:52;95116.44;;;11.15;51.82
34742;BME280;20968;42.696;23.360;2023-02-23T00:41:18;95120.66;;;11.11;50.92
34742;BME280;20968;42.696;23.360;2023-02-23T00:43:47;95110.34;;;11.06;51.58
34742;BME280;20968;42.696;23.360;2023-02-23T00:46:13;95105.03;;;11.02;51.76
34742;BME280;20968;42.696;23.360;2023-02-23T00:48:40;95110.47;;;10.97;51.44
34742;BME280;20968;42.696;23.360;2023-02-23T00:51:06;95111.69;;;10.96;51.96
34742;BME280;20968;42.696;23.360;2023-02-23T00:53:31;95114.16;;;10.94;52.13
34742;BME280;20968;42.696;23.360;2023-02-23T00:55:57;95119.13;;;10.90;52.00
34742;BME280;20968;42.696;23.360;2023-02-23T00:58:24;95110.59;;;10.88;52.09
34742;BME280;20968;42.696;23.360;2023-02-23T01:14:37;95115.94;;;11.57;50.56
34742;BME280;20968;42.696;23.360;2023-02-23T01:17:03;95111.25;;;11.43;50.03
34742;BME280;20968;42.696;23.360;2023-02-23T01:19:28;95105.81;;;11.28;50.25
34742;BME280;20968;42.696;23.360;2023-02-23T01:21:53;95110.81;;;11.24;51.16
34742;BME280;20968;42.696;23.360;2023-02-23T01:24:19;95105.91;;;11.14;50.80
34742;BME280;20968;42.696;23.360;2023-02-23T01:26:46;95113.56;;;11.04;51.64
34742;BME280;20968;42.696;23.360;2023-02-23T01:29:14;95104.47;;;10.98;51.56
34742;BME280;20968;42.696;23.360;2023-02-23T01:31:42;95096.38;;;10.89;51.98
34742;BME280;20968;42.696;23.360;2023-02-23T01:34:10;95106.81;;;10.85;52.06
34742;BME280;20968;42.696;23.360;2023-02-23T01:36:38;95099.56;;;10.88;52.19
34742;BME280;20968;42.696;23.360;2023-02-23T01:39:06;95107.50;;;10.81;51.72
34742;BME280;20968;42.696;23.360;2023-02-23T01:41:32;95107.97;;;10.79;52.35
34742;BME280;20968;42.696;23.360;2023-02-23T01:44:05;95102.88;;;10.72;52.13
34742;BME280;20968;42.696;23.360;2023-02-23T01:46:34;95107.63;;;10.72;52.21
34742;BME280;20968;42.696;23.360;2023-02-23T01:49:00;95099.84;;;10.70;52.60
34742;BME280;20968;42.696;23.360;2023-02-23T01:51:30;95105.38;;;10.70;51.93
34742;BME280;20968;42.696;23.360;2023-02-23T01:54:01;95107.25;;;10.64;52.86
34742;BME280;20968;42.696;23.360;2023-02-23T01:56:35;95094.38;;;10.56;52.56
34742;BME280;20968;42.696;23.360;2023-02-23T01:59:07;95107.94;;;10.59;52.65
34742;BME280;20968;42.696;23.360;2023-02-23T02:01:37;95102.16;;;10.57;52.51
34742;BME280;20968;42.696;23.360;2023-02-23T02:04:05;95102.06;;;10.52;52.34
34742;BME280;20968;42.696;23.360;2023-02-23T02:06:32;95107.31;;;10.50;52.58
34742;BME280;20968;42.696;23.360;2023-02-23T02:09:02;95098.03;;;10.47;53.16
34742;BME280;20968;42.696;23.360;2023-02-23T02:11:31;95095.94;;;10.42;52.78
34742;BME280;20968;42.696;23.360;2023-02-23T02:14:29;95101.38;;;10.37;53.68
34742;BME280;20968;42.696;23.360;2023-02-23T02:28:28;95104.72;;;10.26;53.22
34742;BME280;20968;42.696;23.360;2023-02-23T02:31:04;95104.72;;;10.26;53.59
34742;BME280;20968;42.696;23.360;2023-02-23T02:39:17;95108.16;;;10.21;53.78
34742;BME280;20968;42.696;23.360;2023-02-23T02:44:45;95102.47;;;10.10;54.22
34742;BME280;20968;42.696;23.360;2023-02-23T02:51:12;95095.91;;;10.08;54.20
34742;BME280;20968;42.696;23.360;2023-02-23T02:54:04;95098.31;;;10.01;54.51
34742;BME280;20968;42.696;23.360;2023-02-23T02:56:10;95100.88;;;10.04;55.06
34742;BME280;20968;42.696;23.360;2023-02-23T02:58:37;95093.75;;;9.98;55.08
34742;BME280;20968;42.696;23.360;2023-02-23T03:01:08;95103.03;;;10.00;54.79
34742;BME280;20968;42.696;23.360;2023-02-23T03:03:54;95096.31;;;10.01;55.58
34742;BME280;20968;42.696;23.360;2023-02-23T03:06:51;95095.44;;;9.95;55.42
34742;BME280;20968;42.696;23.360;2023-02-23T03:21:17;95107.03;;;9.85;55.05
34742;BME280;20968;42.696;23.360;2023-02-23T03:27:17;95108.06;;;9.73;54.91
34742;BME280;20968;42.696;23.360;2023-02-23T03:30:23;95111.47;;;9.68;54.82
34742;BME280;20968;42.696;23.360;2023-02-23T03:33:16;95114.81;;;9.72;55.08
34742;BME280;20968;42.696;23.360;2023-02-23T03:36:18;95111.75;;;9.70;54.99
34742;BME280;20968;42.696;23.360;2023-02-23T03:39:18;95123.22;;;9.68;55.18
34742;BME280;20968;42.696;23.360;2023-02-23T03:42:10;95119.16;;;9.64;54.72
34742;BME280;20968;42.696;23.360;2023-02-23T03:44:56;95119.06;;;9.58;55.74
34742;BME280;20968;42.696;23.360;2023-02-23T03:47:42;95127.88;;;9.62;55.38
34742;BME280;20968;42.696;23.360;2023-02-23T03:50:40;95129.88;;;9.62;55.66
34742;BME280;20968;42.696;23.360;2023-02-23T03:53:41;95131.56;;;9.59;55.95
34742;BME280;20968;42.696;23.360;2023-02-23T03:56:32;95136.66;;;9.52;55.51
34742;BME280;20968;42.696;23.360;2023-02-23T03:59:21;95127.88;;;9.48;55.15
34742;BME280;20968;42.696;23.360;2023-02-23T04:02:07;95125.75;;;9.43;55.14
34742;BME280;20968;42.696;23.360;2023-02-23T04:04:53;95138.56;;;9.46;54.93
34742;BME280;20968;42.696;23.360;2023-02-23T04:07:39;95135.16;;;9.51;55.15
34742;BME280;20968;42.696;23.360;2023-02-23T04:10:25;95140.09;;;9.47;55.19
34742;BME280;20968;42.696;23.360;2023-02-23T04:13:14;95137.88;;;9.36;54.96
34742;BME280;20968;42.696;23.360;2023-02-23T04:18:12;95139.41;;;9.37;55.22
34742;BME280;20968;42.696;23.360;2023-02-23T04:20:38;95136.47;;;9.41;55.75
34742;BME280;20968;42.696;23.360;2023-02-23T04:23:04;95135.53;;;9.44;55.28
34742;BME280;20968;42.696;23.360;2023-02-23T04:25:29;95131.66;;;9.50;55.12
34742;BME280;20968;42.696;23.360;2023-02-23T04:27:55;95128.50;;;9.43;55.29
34742;BME280;20968;42.696;23.360;2023-02-23T04:30:20;95140.09;;;9.47;54.96
34742;BME280;20968;42.696;23.360;2023-02-23T04:32:51;95130.03;;;9.44;54.89
34742;BME280;20968;42.696;23.360;2023-02-23T04:35:17;95130.97;;;9.41;56.09
34742;BME280;20968;42.696;23.360;2023-02-23T04:37:42;95137.53;;;9.43;55.15
34742;BME280;20968;42.696;23.360;2023-02-23T04:40:08;95132.47;;;9.42;55.21
34742;BME280;20968;42.696;23.360;2023-02-23T04:42:40;95130.97;;;9.41;55.54
34742;BME280;20968;42.696;23.360;2023-02-23T04:45:06;95136.75;;;9.43;55.98
34742;BME280;20968;42.696;23.360;2023-02-23T04:47:33;95136.75;;;9.43;55.29
34742;BME280;20968;42.696;23.360;2023-02-23T04:50:02;95137.78;;;9.45;56.25
34742;BME280;20968;42.696;23.360;2023-02-23T04:52:28;95128.88;;;9.36;56.11
34742;BME280;20968;42.696;23.360;2023-02-23T04:54:53;95141.00;;;9.44;55.51
34742;BME280;20968;42.696;23.360;2023-02-23T04:57:18;95142.25;;;9.43;55.39
34742;BME280;20968;42.696;23.360;2023-02-23T04:59:44;95129.47;;;9.40;55.35
34742;BME280;20968;42.696;23.360;2023-02-23T05:02:09;95136.19;;;9.39;55.71
34742;BME280;20968;42.696;23.360;2023-02-23T05:04:36;95140.63;;;9.36;55.20
34742;BME280;20968;42.696;23.360;2023-02-23T05:07:01;95130.94;;;9.27;55.50
34742;BME280;20968;42.696;23.360;2023-02-23T05:09:28;95139.41;;;9.37;54.82
34742;BME280;20968;42.696;23.360;2023-02-23T05:11:53;95131.25;;;9.28;55.90
34742;BME280;20968;42.696;23.360;2023-02-23T05:14:19;95143.84;;;9.35;55.76
34742;BME280;20968;42.696;23.360;2023-02-23T05:16:45;95142.88;;;9.90;69.58
34742;BME280;20968;42.696;23.360;2023-02-23T05:19:10;95142.56;;;11.20;66.03
34742;BME280;20968;42.696;23.360;2023-02-23T05:21:36;95142.84;;;11.22;57.23
34742;BME280;20968;42.696;23.360;2023-02-23T05:24:03;95150.06;;;10.99;57.10
34742;BME280;20968;42.696;23.360;2023-02-23T05:26:28;95146.06;;;10.81;55.65
34742;BME280;20968;42.696;23.360;2023-02-23T05:28:54;95147.63;;;10.67;54.21
34742;BME280;20968;42.696;23.360;2023-02-23T05:31:21;95147.38;;;10.51;54.17
34742;BME280;20968;42.696;23.360;2023-02-23T05:33:46;95162.00;;;10.42;54.06
34742;BME280;20968;42.696;23.360;2023-02-23T05:36:14;95155.56;;;10.31;53.90
34742;BME280;20968;42.696;23.360;2023-02-23T05:38:44;95158.91;;;10.20;53.38
34742;BME280;20968;42.696;23.360;2023-02-23T05:41:21;95159.97;;;10.08;53.75
34742;BME280;20968;42.696;23.360;2023-02-23T05:43:47;95167.69;;;9.96;54.41
34742;BME280;20968;42.696;23.360;2023-02-23T05:46:17;95172.34;;;9.90;54.42
34742;BME280;20968;42.696;23.360;2023-02-23T05:48:43;95166.38;;;9.77;54.64
34742;BME280;20968;42.696;23.360;2023-02-23T05:51:11;95173.28;;;9.72;54.81
34742;BME280;20968;42.696;23.360;2023-02-23T05:53:37;95180.94;;;9.68;55.69
34742;BME280;20968;42.696;23.360;2023-02-23T05:56:05;95180.19;;;9.68;55.89
34742;BME280;20968;42.696;23.360;2023-02-23T05:58:31;95187.41;;;9.80;55.96
34742;BME280;20968;42.696;23.360;2023-02-23T06:00:57;95188.94;;;9.81;56.19
34742;BME280;20968;42.696;23.360;2023-02-23T06:03:22;95183.25;;;9.84;55.78
34742;BME280;20968;42.696;23.360;2023-02-23T06:05:49;95195.31;;;9.87;55.87
34742;BME280;20968;42.696;23.360;2023-02-23T06:08:16;95193.72;;;9.95;55.69
34742;BME280;20968;42.696;23.360;2023-02-23T06:10:41;95193.13;;;9.91;56.32
34742;BME280;20968;42.696;23.360;2023-02-23T06:13:07;95207.47;;;9.95;55.66
34742;BME280;20968;42.696;23.360;2023-02-23T06:15:32;95198.72;;;9.96;56.52
34742;BME280;20968;42.696;23.360;2023-02-23T06:17:57;95202.06;;;10.00;55.98
34742;BME280;20968;42.696;23.360;2023-02-23T06:20:23;95199.78;;;9.99;56.17
34742;BME280;20968;42.696;23.360;2023-02-23T06:22:48;95201.97;;;9.95;56.11
34742;BME280;20968;42.696;23.360;2023-02-23T06:25:14;95214.44;;;9.96;55.89
34742;BME280;20968;42.696;23.360;2023-02-23T06:27:39;95215.19;;;9.82;56.36
34742;BME280;20968;42.696;23.360;2023-02-23T06:30:06;95214.44;;;9.81;56.34
34742;BME280;20968;42.696;23.360;2023-02-23T06:32:32;95217.56;;;9.89;56.23
34742;BME280;20968;42.696;23.360;2023-02-23T06:34:58;95216.47;;;9.95;55.52
34742;BME280;20968;42.696;23.360;2023-02-23T06:37:24;95210.78;;;9.99;56.06
34742;BME280;20968;42.696;23.360;2023-02-23T06:39:49;95214.59;;;10.01;55.09
34742;BME280;20968;42.696;23.360;2023-02-23T06:42:15;95223.69;;;10.07;55.54
34742;BME280;20968;42.696;23.360;2023-02-23T06:44:40;95213.09;;;10.14;55.06
34742;BME280;20968;42.696;23.360;2023-02-23T06:47:06;95213.84;;;10.29;55.12
34742;BME280;20968;42.696;23.360;2023-02-23T06:49:31;95220.38;;;10.46;54.43
34742;BME280;20968;42.696;23.360;2023-02-23T06:51:57;95215.44;;;10.50;54.58
34742;BME280;20968;42.696;23.360;2023-02-23T06:54:22;95214.28;;;10.57;54.42
34742;BME280;20968;42.696;23.360;2023-02-23T06:56:48;95223.50;;;10.68;54.11
34742;BME280;20968;42.696;23.360;2023-02-23T06:59:14;95225.28;;;10.71;53.86
34742;BME280;20968;42.696;23.360;2023-02-23T07:01:39;95220.25;;;10.70;53.79
34742;BME280;20968;42.696;23.360;2023-02-23T07:04:09;95225.75;;;10.84;53.96
34742;BME280;20968;42.696;23.360;2023-02-23T07:06:35;95215.84;;;10.92;53.69
34742;BME280;20968;42.696;23.360;2023-02-23T07:09:01;95217.38;;;10.93;53.58
34742;BME280;20968;42.696;23.360;2023-02-23T07:11:26;95214.88;;;10.95;53.62
34742;BME280;20968;42.696;23.360;2023-02-23T07:13:52;95217.72;;;11.20;52.93
34742;BME280;20968;42.696;23.360;2023-02-23T07:16:17;95221.66;;;11.34;52.60
34742;BME280;20968;42.696;23.360;2023-02-23T07:18:43;95216.03;;;11.43;52.61
34742;BME280;20968;42.696;23.360;2023-02-23T07:21:08;95219.16;;;11.50;52.00
34742;BME280;20968;42.696;23.360;2023-02-23T07:23:34;95225.72;;;11.53;52.46
34742;BME280;20968;42.696;23.360;2023-02-23T07:25:59;95219.22;;;11.56;52.21
34742;BME280;20968;42.696;23.360;2023-02-23T07:28:25;95209.41;;;11.55;51.10
34742;BME280;20968;42.696;23.360;2023-02-23T07:30:57;95219.28;;;11.61;51.39
34742;BME280;20968;42.696;23.360;2023-02-23T07:33:23;95215.56;;;11.64;52.07
34742;BME280;20968;42.696;23.360;2023-02-23T07:35:49;95210.25;;;11.80;51.58
34742;BME280;20968;42.696;23.360;2023-02-23T07:38:14;95206.16;;;11.96;51.55
34742;BME280;20968;42.696;23.360;2023-02-23T07:40:40;95204.16;;;11.96;51.12
34742;BME280;20968;42.696;23.360;2023-02-23T07:43:05;95206.19;;;12.01;51.67
34742;BME280;20968;42.696;23.360;2023-02-23T07:45:31;95202.09;;;12.17;50.11
34742;BME280;20968;42.696;23.360;2023-02-23T07:47:57;95204.16;;;12.22;50.42
34742;BME280;20968;42.696;23.360;2023-02-23T07:50:24;95201.38;;;12.22;50.33
34742;BME280;20968;42.696;23.360;2023-02-23T07:52:50;95200.72;;;12.32;50.23
34742;BME280;20968;42.696;23.360;2023-02-23T07:55:16;95203.94;;;12.87;60.26
34742;BME280;20968;42.696;23.360;2023-02-23T07:57:42;95195.25;;;13.46;56.97
34742;BME280;20968;42.696;23.360;2023-02-23T08:00:08;95202.59;;;13.60;49.30
34742;BME280;20968;42.696;23.360;2023-02-23T08:02:34;95202.38;;;13.58;48.38
34742;BME280;20968;42.696;23.360;2023-02-23T08:05:00;95191.47;;;13.44;48.63
34742;BME280;20968;42.696;23.360;2023-02-23T08:07:25;95198.53;;;13.45;48.54
34742;BME280;20968;42.696;23.360;2023-02-23T08:09:51;95198.91;;;13.21;49.11
34742;BME280;20968;42.696;23.360;2023-02-23T08:12:17;95196.44;;;13.29;49.57
34742;BME280;20968;42.696;23.360;2023-02-23T08:14:43;95201.47;;;13.30;48.82
34742;BME280;20968;42.696;23.360;2023-02-23T08:17:08;95189.94;;;13.32;48.85
34742;BME280;20968;42.696;23.360;2023-02-23T08:19:34;95187.16;;;13.32;48.81
34742;BME280;20968;42.696;23.360;2023-02-23T08:22:00;95192.69;;;13.32;48.63
34742;BME280;20968;42.696;23.360;2023-02-23T08:24:26;95184.41;;;13.37;49.73
34742;BME280;20968;42.696;23.360;2023-02-23T08:26:53;95192.22;;;13.44;48.79
34742;BME280;20968;42.696;23.360;2023-02-23T08:29:19;95200.78;;;13.46;48.57
34742;BME280;20968;42.696;23.360;2023-02-23T08:31:45;95187.72;;;13.47;48.51
34742;BME280;20968;42.696;23.360;2023-02-23T08:34:11;95194.53;;;13.51;48.58
34742;BME280;20968;42.696;23.360;2023-02-23T08:36:36;95187.25;;;13.59;47.85
34742;BME280;20968;42.696;23.360;2023-02-23T08:39:03;95190.00;;;13.48;49.26
34742;BME280;20968;42.696;23.360;2023-02-23T08:41:30;95195.53;;;13.48;50.35
34742;BME280;20968;42.696;23.360;2023-02-23T08:43:57;95191.31;;;13.64;49.13
34742;BME280;20968;42.696;23.360;2023-02-23T08:46:22;95178.50;;;13.72;48.66
34742;BME280;20968;42.696;23.360;2023-02-23T08:48:47;95182.53;;;13.76;48.38
34742;BME280;20968;42.696;23.360;2023-02-23T08:51:13;95194.38;;;13.71;49.43
34742;BME280;20968;42.696;23.360;2023-02-23T08:53:39;95188.09;;;13.82;48.92
34742;BME280;20968;42.696;23.360;2023-02-23T08:56:05;95181.31;;;13.83;48.68
34742;BME280;20968;42.696;23.360;2023-02-23T08:58:32;95194.47;;;14.04;47.72
34742;BME280;20968;42.696;23.360;2023-02-23T09:00:59;95181.09;;;14.02;47.30
34742;BME280;20968;42.696;23.360;2023-02-23T09:03:26;95189.16;;;14.06;48.30
34742;BME280;20968;42.696;23.360;2023-02-23T09:05:56;95187.44;;;14.14;47.58
34742;BME280;20968;42.696;23.360;2023-02-23T09:08:21;95181.88;;;14.03;47.54
34742;BME280;20968;42.696;23.360;2023-02-23T09:10:47;95186.47;;;14.17;48.14
34742;BME280;20968;42.696;23.360;2023-02-23T09:13:12;95178.94;;;14.34;46.57
34742;BME280;20968;42.696;23.360;2023-02-23T09:15:39;95167.34;;;14.30;46.70
34742;BME280;20968;42.696;23.360;2023-02-23T09:18:06;95179.19;;;14.41;47.16
34742;BME280;20968;42.696;23.360;2023-02-23T09:20:32;95178.94;;;14.56;47.12
34742;BME280;20968;42.696;23.360;2023-02-23T09:22:58;95165.59;;;14.60;47.31
34742;BME280;20968;42.696;23.360;2023-02-23T09:25:23;95172.38;;;14.70;47.00
34742;BME280;20968;42.696;23.360;2023-02-23T09:27:51;95169.59;;;14.91;46.74
34742;BME280;20968;42.696;23.360;2023-02-23T09:30:18;95180.41;;;15.11;45.72
34742;BME280;20968;42.696;23.360;2023-02-23T09:32:49;95171.31;;;15.27;45.54
34742;BME280;20968;42.696;23.360;2023-02-23T09:35:15;95166.72;;;15.46;44.98
34742;BME280;20968;42.696;23.360;2023-02-23T09:37:50;95178.56;;;15.52;45.12
34742;BME280;20968;42.696;23.360;2023-02-23T09:40:19;95176.72;;;15.71;44.08
34742;BME280;20968;42.696;23.360;2023-02-23T09:45:41;95173.81;;;15.98;43.85
34742;BME280;20968;42.696;23.360;2023-02-23T09:50:34;95165.56;;;16.22;42.95
34742;BME280;20968;42.696;23.360;2023-02-23T09:56:36;95161.34;;;16.56;43.02
34742;BME280;20968;42.696;23.360;2023-02-23T09:59:04;95159.75;;;16.66;42.23
34742;BME280;20968;42.696;23.360;2023-02-23T10:04:09;95165.00;;;17.28;41.98
34742;BME280;20968;42.696;23.360;2023-02-23T10:06:38;95167.94;;;17.12;41.87
34742;BME280;20968;42.696;23.360;2023-02-23T10:09:26;95152.75;;;17.36;41.05
34742;BME280;20968;42.696;23.360;2023-02-23T10:17:23;95151.72;;;17.82;39.47
34742;BME280;20968;42.696;23.360;2023-02-23T10:19:58;95149.53;;;17.93;39.29
34742;BME280;20968;42.696;23.360;2023-02-23T10:22:28;95148.88;;;18.05;39.23
34742;BME280;20968;42.696;23.360;2023-02-23T10:25:07;95139.97;;;18.25;40.09
34742;BME280;20968;42.696;23.360;2023-02-23T10:27:41;95135.88;;;18.45;39.53
34742;BME280;20968;42.696;23.360;2023-02-23T10:30:29;95133.72;;;18.69;39.72
34742;BME280;20968;42.696;23.360;2023-02-23T10:33:21;95140.75;;;18.88;38.13
34742;BME280;20968;42.696;23.360;2023-02-23T10:35:55;95131.63;;;18.88;38.78
34742;BME280;20968;42.696;23.360;2023-02-23T10:38:22;95129.25;;;18.92;38.35
34742;BME280;20968;42.696;23.360;2023-02-23T10:40:53;95127.75;;;19.09;38.21
34742;BME280;20968;42.696;23.360;2023-02-23T10:43:19;95127.03;;;18.90;37.57
34742;BME280;20968;42.696;23.360;2023-02-23T10:45:50;95118.97;;;19.00;37.80
34742;BME280;20968;42.696;23.360;2023-02-23T10:48:26;95112.34;;;19.03;37.84
34742;BME280;20968;42.696;23.360;2023-02-23T10:50:55;95115.16;;;19.16;37.97
34742;BME280;20968;42.696;23.360;2023-02-23T10:53:31;95115.06;;;19.34;37.19
34742;BME280;20968;42.696;23.360;2023-02-23T10:56:11;95101.84;;;19.48;36.87
34742;BME280;20968;42.696;23.360;2023-02-23T10:58:48;95096.13;;;19.66;36.13
34742;BME280;20968;42.696;23.360;2023-02-23T11:01:36;95095.63;;;19.54;37.19
34742;BME280;20968;42.696;23.360;2023-02-23T11:06:38;95093.00;;;19.82;35.99
34742;BME280;20968;42.696;23.360;2023-02-23T11:09:26;95086.75;;;19.89;36.11
34742;BME280;20968;42.696;23.360;2023-02-23T11:14:26;95082.44;;;20.34;35.36
34742;BME280;20968;42.696;23.360;2023-02-23T11:16:54;95079.53;;;20.60;34.21
34742;BME280;20968;42.696;23.360;2023-02-23T11:19:24;95080.94;;;20.54;34.26
34742;BME280;20968;42.696;23.360;2023-02-23T11:21:51;95077.34;;;20.66;34.23
34742;BME280;20968;42.696;23.360;2023-02-23T11:24:27;95071.13;;;20.81;33.68
34742;BME280;20968;42.696;23.360;2023-02-23T11:26:56;95073.78;;;20.86;33.49
34742;BME280;20968;42.696;23.360;2023-02-23T11:29:37;95069.47;;;21.06;34.01
34742;BME280;20968;42.696;23.360;2023-02-23T11:34:34;95062.03;;;21.36;33.50
34742;BME280;20968;42.696;23.360;2023-02-23T11:37:07;95050.47;;;21.47;32.38
34742;BME280;20968;42.696;23.360;2023-02-23T11:39:59;95056.16;;;21.26;33.00
34742;BME280;20968;42.696;23.360;2023-02-23T11:42:26;95058.47;;;21.08;33.05
34742;BME280;20968;42.696;23.360;2023-02-23T11:45:06;95054.72;;;21.05;32.71
34742;BME280;20968;42.696;23.360;2023-02-23T11:47:39;95056.59;;;21.10;32.99
34742;BME280;20968;42.696;23.360;2023-02-23T11:50:06;95051.94;;;21.13;33.33
34742;BME280;20968;42.696;23.360;2023-02-23T11:52:32;95054.06;;;21.19;33.09
34742;BME280;20968;42.696;23.360;2023-02-23T11:55:06;95039.53;;;21.28;31.91
34742;BME280;20968;42.696;23.360;2023-02-23T11:57:34;95040.50;;;21.03;32.22
34742;BME280;20968;42.696;23.360;2023-02-23T12:00:21;95041.50;;;20.85;32.67
34742;BME280;20968;42.696;23.360;2023-02-23T12:02:55;95050.66;;;20.86;32.91
34742;BME280;20968;42.696;23.360;2023-02-23T12:05:30;95048.06;;;20.88;33.05
34742;BME280;20968;42.696;23.360;2023-02-23T12:08:17;95037.66;;;20.75;32.18
34742;BME280;20968;42.696;23.360;2023-02-23T12:10:52;95046.94;;;20.70;32.49
34742;BME280;20968;42.696;23.360;2023-02-23T12:16:00;95042.25;;;20.86;32.84
34742;BME280;20968;42.696;23.360;2023-02-23T12:24:12;95036.34;;;21.24;31.63
34742;BME280;20968;42.696;23.360;2023-02-23T12:26:58;95027.38;;;21.18;31.75
34742;BME280;20968;42.696;23.360;2023-02-23T12:32:21;95016.59;;;21.02;32.15
34742;BME280;20968;42.696;23.360;2023-02-23T12:34:57;95021.44;;;20.53;32.92
34742;BME280;20968;42.696;23.360;2023-02-23T12:37:33;95021.84;;;20.37;33.26
34742;BME280;20968;42.696;23.360;2023-02-23T12:40:21;95020.28;;;20.29;33.38
34742;BME280;20968;42.696;23.360;2023-02-23T12:42:58;95021.00;;;20.29;33.16
34742;BME280;20968;42.696;23.360;2023-02-23T12:45:48;95022.94;;;20.34;33.98
34742;BME280;20968;42.696;23.360;2023-02-23T12:48:30;95018.84;;;20.35;34.42
34742;BME280;20968;42.696;23.360;2023-02-23T12:51:04;95021.22;;;20.31;33.89
34742;BME280;20968;42.696;23.360;2023-02-23T12:53:42;95019.78;;;20.17;34.11
34742;BME280;20968;42.696;23.360;2023-02-23T13:01:45;95012.13;;;20.18;33.99
34742;BME280;20968;42.696;23.360;2023-02-23T13:07:08;95007.72;;;19.89;34.21
34742;BME280;20968;42.696;23.360;2023-02-23T13:20:46;95006.22;;;19.88;34.61
34742;BME280;20968;42.696;23.360;2023-02-23T13:23:24;95009.63;;;19.94;34.05
34742;BME280;20968;42.696;23.360;2023-02-23T13:31:30;95002.06;;;19.81;34.81
34742;BME280;20968;42.696;23.360;2023-02-23T13:33:59;94992.50;;;19.77;34.37
34742;BME280;20968;42.696;23.360;2023-02-23T13:36:30;94994.00;;;19.78;34.63
34742;BME280;20968;42.696;23.360;2023-02-23T13:44:42;94994.59;;;19.63;35.47
34742;BME280;20968;42.696;23.360;2023-02-23T13:47:17;94993.75;;;19.55;34.59
34742;BME280;20968;42.696;23.360;2023-02-23T13:49:53;94998.59;;;19.55;35.15
34742;BME280;20968;42.696;23.360;2023-02-23T13:55:02;95001.06;;;19.46;35.00
34742;BME280;20968;42.696;23.360;2023-02-23T13:57:30;95008.50;;;19.30;35.13
34742;BME280;20968;42.696;23.360;2023-02-23T13:59:56;95007.34;;;19.26;35.02
34742;BME280;20968;42.696;23.360;2023-02-23T14:04:49;95000.88;;;19.31;34.93
34742;BME280;20968;42.696;23.360;2023-02-23T14:07:32;95009.25;;;19.31;35.37
34742;BME280;20968;42.696;23.360;2023-02-23T14:10:13;95000.69;;;19.29;35.43
34742;BME280;20968;42.696;23.360;2023-02-23T14:13:03;95007.13;;;19.24;35.53
34742;BME280;20968;42.696;23.360;2023-02-23T14:15:43;95011.84;;;18.90;37.88
34742;BME280;20968;42.696;23.360;2023-02-23T14:23:34;95011.75;;;18.38;40.31
34742;BME280;20968;42.696;23.360;2023-02-23T14:28:38;95013.13;;;18.00;41.78
34742;BME280;20968;42.696;23.360;2023-02-23T14:42:13;95015.72;;;17.62;43.22
34742;BME280;20968;42.696;23.360;2023-02-23T14:44:25;95011.28;;;17.35;42.69
34742;BME280;20968;42.696;23.360;2023-02-23T14:47:20;95020.25;;;17.28;42.70
34742;BME280;20968;42.696;23.360;2023-02-23T14:49:53;95014.78;;;17.17;42.85
34742;BME280;20968;42.696;23.360;2023-02-23T14:52:32;95031.88;;;17.08;43.00
34742;BME280;20968;42.696;23.360;2023-02-23T14:55:15;95023.28;;;16.82;43.12
34742;BME280;20968;42.696;23.360;2023-02-23T14:57:46;95027.97;;;16.69;43.34
34742;BME280;20968;42.696;23.360;2023-02-23T15:03:06;95030.47;;;16.48;43.71
34742;BME280;20968;42.696;23.360;2023-02-23T15:05:49;95028.50;;;16.43;44.34
34742;BME280;20968;42.696;23.360;2023-02-23T15:08:24;95032.41;;;16.30;44.52
34742;BME280;20968;42.696;23.360;2023-02-23T15:11:11;95040.59;;;16.17;45.08
34742;BME280;20968;42.696;23.360;2023-02-23T15:13:46;95030.59;;;16.03;44.56
34742;BME280;20968;42.696;23.360;2023-02-23T15:18:46;95039.38;;;15.72;45.46
34742;BME280;20968;42.696;23.360;2023-02-23T15:21:16;95047.81;;;15.61;46.20
34742;BME280;20968;42.696;23.360;2023-02-23T15:23:48;95049.63;;;15.48;46.25
34742;BME280;20968;42.696;23.360;2023-02-23T15:26:34;95058.72;;;15.48;46.55
34742;BME280;20968;42.696;23.360;2023-02-23T15:29:13;95054.72;;;15.44;46.80
34742;BME280;20968;42.696;23.360;2023-02-23T15:31:41;95068.16;;;15.29;47.17
34742;BME280;20968;42.696;23.360;2023-02-23T15:34:14;95076.03;;;15.08;47.27
34742;BME280;20968;42.696;23.360;2023-02-23T15:36:46;95080.09;;;14.96;48.09
34742;BME280;20968;42.696;23.360;2023-02-23T15:39:16;95078.63;;;14.84;48.29
34742;BME280;20968;42.696;23.360;2023-02-23T15:41:46;95083.66;;;14.86;48.19
34742;BME280;20968;42.696;23.360;2023-02-23T15:44:14;95101.59;;;14.63;48.87